Portada
METAR-TAF:

METAR-TAF

Aeropuertos :

Aeropuerto Internacional de la Reina Alia

Amán-Queen Alia, Jordania

latitud: 31-40N, longitud: 035-58E, altitud: 721 m

Observación

El informe se hizo hace 23 minutos, a las 02:00 UTC
Viento calma
Temperatura 4°C
Humedad 100%
Presión 1023 hPa
Visibilidad menor de 50 m
niebla

METAR: OJAI 270200Z 00000KT 0000 FG NSC 04/04 Q1023 NOSIG

Hora: 04:23 (02:23 UTC)

Pronóstico

El informe se hizo hace 3 horas y 33 minutos, a las 22:50 UTC
Pronóstico válido del 27 a las 00 UTC al 28 a las 06 UTC
Viento 2 kt con dirección variable
Visibilidad: 0200 m
Nubes dispersas a una altura de 1500 ft
niebla
Evolucionando progresivamente
del 27 a las 07 UTC al 27 a las 09 UTC
Viento 8 kt del sur-sureste
Visibilidad: 4000 m
calima

TAF: OJAI 262250Z 2700/2806 VRB02KT 0200 FG SCT015 BECMG 2707/2709 16008KT 4000 HZ NSC

Observaciones y pronósticos meteorológicos de más de 4000 aeropuertos (mensajes METAR y TAF).

Los puntos amarillos y rojos representan las estaciones disponibles.

Ponga el ratón en el punto deseado para ver el nombre de la estación.

Haga clic para ver las observaciones y los pronósticos meteorológicos.

Para cambiar el mapa : haga clic en los botones verdes con una cruz de color negro para hacer un zoom, en el botón verde con un guión para alejar o en las flechas verdes para mapas adyacentes.


METAR-TAF: